sensor_id;sensor_type;location;lat;lon;timestamp;temperature;humidity
1766;DHT22;880;52.452;8.656;2023-04-01T00:00:52;11.20;99.90
1766;DHT22;880;52.452;8.656;2023-04-01T00:03:21;11.30;99.90
1766;DHT22;880;52.452;8.656;2023-04-01T00:05:57;11.50;99.90
1766;DHT22;880;52.452;8.656;2023-04-01T00:08:25;11.70;99.90
1766;DHT22;880;52.452;8.656;2023-04-01T00:10:53;11.80;99.90
1766;DHT22;880;52.452;8.656;2023-04-01T00:13:22;11.90;99.90
1766;DHT22;880;52.452;8.656;2023-04-01T00:15:49;12.00;99.90
1766;DHT22;880;52.452;8.656;2023-04-01T00:18:16;12.10;99.90
1766;DHT22;880;52.452;8.656;2023-04-01T00:20:45;12.10;99.90
1766;DHT22;880;52.452;8.656;2023-04-01T00:23:14;12.20;99.90
1766;DHT22;880;52.452;8.656;2023-04-01T00:25:42;12.20;99.90
1766;DHT22;880;52.452;8.656;2023-04-01T00:28:09;12.30;99.90
1766;DHT22;880;52.452;8.656;2023-04-01T00:30:36;12.30;99.90
1766;DHT22;880;52.452;8.656;2023-04-01T00:33:04;12.20;99.90
1766;DHT22;880;52.452;8.656;2023-04-01T00:35:31;12.10;99.90
1766;DHT22;880;52.452;8.656;2023-04-01T00:37:59;12.00;99.90
1766;DHT22;880;52.452;8.656;2023-04-01T00:40:33;11.90;99.90
1766;DHT22;880;52.452;8.656;2023-04-01T00:43:02;12.00;99.90
1766;DHT22;880;52.452;8.656;2023-04-01T00:45:35;12.00;99.90
1766;DHT22;880;52.452;8.656;2023-04-01T00:48:13;11.80;99.90
1766;DHT22;880;52.452;8.656;2023-04-01T00:50:45;11.80;99.90
1766;DHT22;880;52.452;8.656;2023-04-01T00:53:19;11.80;99.90
1766;DHT22;880;52.452;8.656;2023-04-01T00:55:51;11.80;99.90
1766;DHT22;880;52.452;8.656;2023-04-01T00:58:24;11.80;99.90
1766;DHT22;880;52.452;8.656;2023-04-01T01:01:08;11.80;99.90
1766;DHT22;880;52.452;8.656;2023-04-01T01:03:36;11.70;99.90
1766;DHT22;880;52.452;8.656;2023-04-01T01:12:23;12.20;99.90
1766;DHT22;880;52.452;8.656;2023-04-01T01:18:23;12.30;99.90
1766;DHT22;880;52.452;8.656;2023-04-01T01:24:13;12.30;99.90
1766;DHT22;880;52.452;8.656;2023-04-01T01:35:57;12.40;99.90
1766;DHT22;880;52.452;8.656;2023-04-01T01:38:29;12.40;99.90
1766;DHT22;880;52.452;8.656;2023-04-01T01:41:05;12.20;99.90
1766;DHT22;880;52.452;8.656;2023-04-01T01:43:38;12.20;99.90
1766;DHT22;880;52.452;8.656;2023-04-01T01:46:14;12.20;99.90
1766;DHT22;880;52.452;8.656;2023-04-01T01:48:47;12.20;99.90
1766;DHT22;880;52.452;8.656;2023-04-01T01:51:17;12.10;99.90
1766;DHT22;880;52.452;8.656;2023-04-01T01:53:47;12.10;99.90
1766;DHT22;880;52.452;8.656;2023-04-01T01:56:18;12.10;99.90
1766;DHT22;880;52.452;8.656;2023-04-01T01:58:49;12.00;99.90
1766;DHT22;880;52.452;8.656;2023-04-01T02:01:24;12.00;99.90
1766;DHT22;880;52.452;8.656;2023-04-01T02:03:57;12.00;99.90
1766;DHT22;880;52.452;8.656;2023-04-01T02:06:29;11.90;99.90
1766;DHT22;880;52.452;8.656;2023-04-01T02:09:04;11.90;99.90
1766;DHT22;880;52.452;8.656;2023-04-01T02:11:49;11.90;99.90
1766;DHT22;880;52.452;8.656;2023-04-01T02:14:39;11.80;99.90
1766;DHT22;880;52.452;8.656;2023-04-01T02:17:24;11.80;99.90
1766;DHT22;880;52.452;8.656;2023-04-01T02:19:56;11.60;99.90
1766;DHT22;880;52.452;8.656;2023-04-01T02:22:29;11.70;99.90
1766;DHT22;880;52.452;8.656;2023-04-01T02:25:02;11.70;99.90
1766;DHT22;880;52.452;8.656;2023-04-01T02:27:32;11.70;99.90
1766;DHT22;880;52.452;8.656;2023-04-01T02:29:59;11.70;99.90
1766;DHT22;880;52.452;8.656;2023-04-01T02:32:27;11.70;99.90
1766;DHT22;880;52.452;8.656;2023-04-01T02:34:55;11.70;99.90
1766;DHT22;880;52.452;8.656;2023-04-01T02:37:23;11.60;99.90
1766;DHT22;880;52.452;8.656;2023-04-01T02:39:50;11.60;99.90
1766;DHT22;880;52.452;8.656;2023-04-01T02:42:17;11.60;99.90
1766;DHT22;880;52.452;8.656;2023-04-01T02:44:44;11.60;99.90
1766;DHT22;880;52.452;8.656;2023-04-01T02:47:11;11.60;99.90
1766;DHT22;880;52.452;8.656;2023-04-01T02:49:38;11.60;99.90
1766;DHT22;880;52.452;8.656;2023-04-01T02:52:05;11.60;99.90
1766;DHT22;880;52.452;8.656;2023-04-01T02:54:32;11.60;99.90
1766;DHT22;880;52.452;8.656;2023-04-01T02:56:59;11.50;99.90
1766;DHT22;880;52.452;8.656;2023-04-01T02:59:26;11.50;99.90
1766;DHT22;880;52.452;8.656;2023-04-01T03:01:53;11.50;99.90
1766;DHT22;880;52.452;8.656;2023-04-01T03:04:23;11.50;99.90
1766;DHT22;880;52.452;8.656;2023-04-01T03:06:50;11.40;99.90
1766;DHT22;880;52.452;8.656;2023-04-01T03:09:17;11.40;99.90
1766;DHT22;880;52.452;8.656;2023-04-01T03:11:44;11.40;99.90
1766;DHT22;880;52.452;8.656;2023-04-01T03:14:11;11.30;99.90
1766;DHT22;880;52.452;8.656;2023-04-01T03:16:38;11.30;99.90
1766;DHT22;880;52.452;8.656;2023-04-01T03:19:05;11.20;99.90
1766;DHT22;880;52.452;8.656;2023-04-01T03:21:32;11.20;99.90
1766;DHT22;880;52.452;8.656;2023-04-01T03:24:00;11.20;99.90
1766;DHT22;880;52.452;8.656;2023-04-01T03:26:28;11.20;99.90
1766;DHT22;880;52.452;8.656;2023-04-01T03:28:55;11.20;99.90
1766;DHT22;880;52.452;8.656;2023-04-01T03:31:22;11.20;99.90
1766;DHT22;880;52.452;8.656;2023-04-01T03:33:53;11.20;99.90
1766;DHT22;880;52.452;8.656;2023-04-01T03:36:21;11.20;99.90
1766;DHT22;880;52.452;8.656;2023-04-01T03:38:48;11.20;99.90
1766;DHT22;880;52.452;8.656;2023-04-01T03:41:21;11.20;99.90
1766;DHT22;880;52.452;8.656;2023-04-01T03:43:49;11.20;99.90
1766;DHT22;880;52.452;8.656;2023-04-01T03:46:17;11.20;99.90
1766;DHT22;880;52.452;8.656;2023-04-01T03:48:46;11.20;99.90
1766;DHT22;880;52.452;8.656;2023-04-01T03:51:13;11.10;99.90
1766;DHT22;880;52.452;8.656;2023-04-01T03:53:40;11.20;99.90
1766;DHT22;880;52.452;8.656;2023-04-01T03:56:08;11.20;99.90
1766;DHT22;880;52.452;8.656;2023-04-01T03:58:36;11.20;99.90
1766;DHT22;880;52.452;8.656;2023-04-01T04:01:16;11.20;99.90
1766;DHT22;880;52.452;8.656;2023-04-01T04:03:45;11.20;99.90
1766;DHT22;880;52.452;8.656;2023-04-01T04:06:14;11.10;99.90
1766;DHT22;880;52.452;8.656;2023-04-01T04:08:41;11.20;99.90
1766;DHT22;880;52.452;8.656;2023-04-01T04:11:08;11.20;99.90
1766;DHT22;880;52.452;8.656;2023-04-01T04:13:39;11.20;99.90
1766;DHT22;880;52.452;8.656;2023-04-01T04:16:06;11.20;99.90
1766;DHT22;880;52.452;8.656;2023-04-01T04:18:36;11.10;99.90
1766;DHT22;880;52.452;8.656;2023-04-01T04:21:03;11.20;99.90
1766;DHT22;880;52.452;8.656;2023-04-01T04:23:31;11.20;99.90
1766;DHT22;880;52.452;8.656;2023-04-01T04:26:06;11.30;99.90
1766;DHT22;880;52.452;8.656;2023-04-01T04:28:34;11.20;99.90
1766;DHT22;880;52.452;8.656;2023-04-01T04:31:02;11.20;99.90
1766;DHT22;880;52.452;8.656;2023-04-01T04:33:33;11.20;99.90
1766;DHT22;880;52.452;8.656;2023-04-01T04:36:01;11.30;99.90
1766;DHT22;880;52.452;8.656;2023-04-01T04:38:28;11.20;99.90
1766;DHT22;880;52.452;8.656;2023-04-01T04:40:56;11.10;99.90
1766;DHT22;880;52.452;8.656;2023-04-01T04:43:23;11.10;99.90
1766;DHT22;880;52.452;8.656;2023-04-01T04:45:51;11.00;99.90
1766;DHT22;880;52.452;8.656;2023-04-01T04:48:18;11.00;99.90
1766;DHT22;880;52.452;8.656;2023-04-01T04:50:49;10.80;99.90
1766;DHT22;880;52.452;8.656;2023-04-01T04:53:19;10.70;99.90
1766;DHT22;880;52.452;8.656;2023-04-01T04:55:50;10.60;99.90
1766;DHT22;880;52.452;8.656;2023-04-01T04:58:26;10.60;99.90
1766;DHT22;880;52.452;8.656;2023-04-01T05:00:54;10.60;99.90
1766;DHT22;880;52.452;8.656;2023-04-01T05:03:28;10.60;99.90
1766;DHT22;880;52.452;8.656;2023-04-01T05:05:55;10.60;99.90
1766;DHT22;880;52.452;8.656;2023-04-01T05:08:23;10.60;99.90
1766;DHT22;880;52.452;8.656;2023-04-01T05:10:50;10.70;99.90
1766;DHT22;880;52.452;8.656;2023-04-01T05:13:17;10.70;99.90
1766;DHT22;880;52.452;8.656;2023-04-01T05:15:46;10.70;99.90
1766;DHT22;880;52.452;8.656;2023-04-01T05:18:13;10.70;99.90
1766;DHT22;880;52.452;8.656;2023-04-01T05:20:46;10.70;99.90
1766;DHT22;880;52.452;8.656;2023-04-01T05:23:17;10.60;99.90
1766;DHT22;880;52.452;8.656;2023-04-01T05:25:44;10.50;99.90
1766;DHT22;880;52.452;8.656;2023-04-01T05:28:12;10.60;99.90
1766;DHT22;880;52.452;8.656;2023-04-01T05:30:41;10.50;99.90
1766;DHT22;880;52.452;8.656;2023-04-01T05:33:23;10.50;99.90
1766;DHT22;880;52.452;8.656;2023-04-01T05:35:50;10.50;99.90
1766;DHT22;880;52.452;8.656;2023-04-01T05:38:17;10.60;99.90
1766;DHT22;880;52.452;8.656;2023-04-01T05:40:44;10.80;99.90
1766;DHT22;880;52.452;8.656;2023-04-01T05:43:12;10.90;99.90
1766;DHT22;880;52.452;8.656;2023-04-01T05:45:40;11.00;99.90
1766;DHT22;880;52.452;8.656;2023-04-01T05:48:13;11.00;99.90
1766;DHT22;880;52.452;8.656;2023-04-01T05:50:41;11.00;99.90
1766;DHT22;880;52.452;8.656;2023-04-01T05:53:09;11.10;99.90
1766;DHT22;880;52.452;8.656;2023-04-01T05:55:39;11.10;99.90
1766;DHT22;880;52.452;8.656;2023-04-01T05:58:06;11.10;99.90
1766;DHT22;880;52.452;8.656;2023-04-01T06:00:35;11.10;99.90
1766;DHT22;880;52.452;8.656;2023-04-01T06:03:02;11.00;99.90
1766;DHT22;880;52.452;8.656;2023-04-01T06:05:35;10.80;99.90
1766;DHT22;880;52.452;8.656;2023-04-01T06:08:17;10.60;99.90
1766;DHT22;880;52.452;8.656;2023-04-01T06:14:09;10.50;99.90
1766;DHT22;880;52.452;8.656;2023-04-01T06:17:19;10.40;99.90
1766;DHT22;880;52.452;8.656;2023-04-01T06:20:12;10.30;99.90
1766;DHT22;880;52.452;8.656;2023-04-01T06:25:38;10.40;99.90
1766;DHT22;880;52.452;8.656;2023-04-01T06:28:46;10.30;99.90
1766;DHT22;880;52.452;8.656;2023-04-01T06:31:46;10.40;99.90
1766;DHT22;880;52.452;8.656;2023-04-01T06:34:57;10.50;99.90
1766;DHT22;880;52.452;8.656;2023-04-01T06:51:12;10.30;99.90
1766;DHT22;880;52.452;8.656;2023-04-01T06:54:39;10.30;99.90
1766;DHT22;880;52.452;8.656;2023-04-01T06:57:55;10.30;99.90
1766;DHT22;880;52.452;8.656;2023-04-01T07:00:33;10.30;99.90
1766;DHT22;880;52.452;8.656;2023-04-01T07:03:22;10.30;99.90
1766;DHT22;880;52.452;8.656;2023-04-01T07:05:53;10.30;99.90
1766;DHT22;880;52.452;8.656;2023-04-01T07:08:25;10.20;99.90
1766;DHT22;880;52.452;8.656;2023-04-01T07:14:24;10.40;99.90
1766;DHT22;880;52.452;8.656;2023-04-01T07:17:08;10.40;99.90
1766;DHT22;880;52.452;8.656;2023-04-01T07:19:45;10.30;99.90
1766;DHT22;880;52.452;8.656;2023-04-01T07:25:14;10.30;99.90
1766;DHT22;880;52.452;8.656;2023-04-01T07:27:50;10.30;99.90
1766;DHT22;880;52.452;8.656;2023-04-01T07:30:22;10.30;99.90
1766;DHT22;880;52.452;8.656;2023-04-01T07:33:16;10.30;99.90
1766;DHT22;880;52.452;8.656;2023-04-01T07:35:57;10.40;99.90
1766;DHT22;880;52.452;8.656;2023-04-01T07:45:18;10.40;99.90
1766;DHT22;880;52.452;8.656;2023-04-01T07:51:01;10.50;99.90
1766;DHT22;880;52.452;8.656;2023-04-01T07:56:10;10.50;99.90
1766;DHT22;880;52.452;8.656;2023-04-01T08:01:28;10.40;99.90
1766;DHT22;880;52.452;8.656;2023-04-01T08:04:27;10.50;99.90
1766;DHT22;880;52.452;8.656;2023-04-01T08:09:59;10.60;99.90
1766;DHT22;880;52.452;8.656;2023-04-01T08:25:51;10.60;99.90
1766;DHT22;880;52.452;8.656;2023-04-01T08:29:04;10.70;99.90
1766;DHT22;880;52.452;8.656;2023-04-01T08:31:58;10.80;99.90
1766;DHT22;880;52.452;8.656;2023-04-01T08:34:40;10.90;99.90
1766;DHT22;880;52.452;8.656;2023-04-01T08:37:28;10.90;99.90
1766;DHT22;880;52.452;8.656;2023-04-01T08:43:21;11.00;99.90
1766;DHT22;880;52.452;8.656;2023-04-01T08:52:48;11.20;99.90
1766;DHT22;880;52.452;8.656;2023-04-01T08:55:51;11.20;99.90
1766;DHT22;880;52.452;8.656;2023-04-01T09:17:32;11.10;99.90
1766;DHT22;880;52.452;8.656;2023-04-01T09:20:33;11.10;99.90
1766;DHT22;880;52.452;8.656;2023-04-01T09:32:58;11.10;99.90
1766;DHT22;880;52.452;8.656;2023-04-01T09:36:04;11.10;99.90
1766;DHT22;880;52.452;8.656;2023-04-01T09:45:00;11.40;99.90
1766;DHT22;880;52.452;8.656;2023-04-01T09:47:52;11.50;99.90
1766;DHT22;880;52.452;8.656;2023-04-01T09:50:38;11.50;99.90
1766;DHT22;880;52.452;8.656;2023-04-01T09:56:32;11.40;99.90
1766;DHT22;880;52.452;8.656;2023-04-01T10:03:19;11.50;99.90
1766;DHT22;880;52.452;8.656;2023-04-01T10:06:41;11.70;99.90
1766;DHT22;880;52.452;8.656;2023-04-01T10:12:19;11.60;99.90
1766;DHT22;880;52.452;8.656;2023-04-01T10:18:24;11.60;99.90
1766;DHT22;880;52.452;8.656;2023-04-01T10:30:52;11.70;99.90
1766;DHT22;880;52.452;8.656;2023-04-01T10:36:53;11.80;99.90
1766;DHT22;880;52.452;8.656;2023-04-01T10:40:00;11.80;99.90
1766;DHT22;880;52.452;8.656;2023-04-01T10:46:16;11.70;99.90
1766;DHT22;880;52.452;8.656;2023-04-01T11:09:40;11.80;99.90
1766;DHT22;880;52.452;8.656;2023-04-01T11:14:56;11.90;99.90
1766;DHT22;880;52.452;8.656;2023-04-01T11:17:41;12.10;99.90
1766;DHT22;880;52.452;8.656;2023-04-01T11:26:21;12.60;99.90
1766;DHT22;880;52.452;8.656;2023-04-01T11:29:59;12.60;99.90
1766;DHT22;880;52.452;8.656;2023-04-01T11:33:02;12.70;99.90
1766;DHT22;880;52.452;8.656;2023-04-01T11:38:28;12.80;99.90
1766;DHT22;880;52.452;8.656;2023-04-01T11:41:41;12.80;99.90
1766;DHT22;880;52.452;8.656;2023-04-01T11:50:56;13.00;99.90
1766;DHT22;880;52.452;8.656;2023-04-01T11:59:13;13.00;99.90
1766;DHT22;880;52.452;8.656;2023-04-01T12:11:00;13.20;99.90
1766;DHT22;880;52.452;8.656;2023-04-01T12:13:51;13.20;99.90
1766;DHT22;880;52.452;8.656;2023-04-01T12:19:46;13.20;99.90
1766;DHT22;880;52.452;8.656;2023-04-01T12:28:29;13.10;99.90
1766;DHT22;880;52.452;8.656;2023-04-01T12:31:25;13.00;99.90
1766;DHT22;880;52.452;8.656;2023-04-01T12:34:13;12.90;99.90
1766;DHT22;880;52.452;8.656;2023-04-01T12:37:35;12.90;99.90
1766;DHT22;880;52.452;8.656;2023-04-01T12:40:43;12.90;99.90
1766;DHT22;880;52.452;8.656;2023-04-01T12:43:49;12.90;99.90
1766;DHT22;880;52.452;8.656;2023-04-01T12:47:00;12.90;99.90
1766;DHT22;880;52.452;8.656;2023-04-01T12:52:39;12.90;99.90
1766;DHT22;880;52.452;8.656;2023-04-01T12:55:31;13.00;99.90
1766;DHT22;880;52.452;8.656;2023-04-01T13:01:17;12.80;99.90
1766;DHT22;880;52.452;8.656;2023-04-01T13:04:26;12.70;99.90
1766;DHT22;880;52.452;8.656;2023-04-01T13:07:15;12.70;99.90
1766;DHT22;880;52.452;8.656;2023-04-01T13:16:16;12.60;99.90
1766;DHT22;880;52.452;8.656;2023-04-01T13:22:15;12.50;99.90
1766;DHT22;880;52.452;8.656;2023-04-01T13:25:04;12.50;99.90
1766;DHT22;880;52.452;8.656;2023-04-01T13:27:43;12.40;99.90
1766;DHT22;880;52.452;8.656;2023-04-01T13:30:27;12.30;99.90
1766;DHT22;880;52.452;8.656;2023-04-01T13:33:14;12.20;99.90
1766;DHT22;880;52.452;8.656;2023-04-01T13:36:26;12.20;99.90
1766;DHT22;880;52.452;8.656;2023-04-01T13:39:15;12.30;99.90
1766;DHT22;880;52.452;8.656;2023-04-01T13:42:29;12.30;99.90
1766;DHT22;880;52.452;8.656;2023-04-01T13:45:22;12.20;99.90
1766;DHT22;880;52.452;8.656;2023-04-01T13:48:13;12.10;99.90
1766;DHT22;880;52.452;8.656;2023-04-01T13:54:09;12.10;99.90
1766;DHT22;880;52.452;8.656;2023-04-01T13:59:47;12.10;99.90
1766;DHT22;880;52.452;8.656;2023-04-01T14:06:17;12.10;99.90
1766;DHT22;880;52.452;8.656;2023-04-01T14:18:24;12.30;99.90
1766;DHT22;880;52.452;8.656;2023-04-01T14:27:30;12.20;99.90
1766;DHT22;880;52.452;8.656;2023-04-01T14:40:21;11.20;99.90
1766;DHT22;880;52.452;8.656;2023-04-01T14:55:23;10.90;99.90
1766;DHT22;880;52.452;8.656;2023-04-01T14:57:59;10.80;99.90
1766;DHT22;880;52.452;8.656;2023-04-01T15:10:06;10.30;99.90
1766;DHT22;880;52.452;8.656;2023-04-01T15:13:05;10.30;99.90
1766;DHT22;880;52.452;8.656;2023-04-01T15:16:11;10.20;99.90
1766;DHT22;880;52.452;8.656;2023-04-01T15:30:21;9.80;99.90
1766;DHT22;880;52.452;8.656;2023-04-01T15:38:52;9.80;99.90
1766;DHT22;880;52.452;8.656;2023-04-01T15:53:13;9.60;99.90
1766;DHT22;880;52.452;8.656;2023-04-01T15:56:10;9.60;99.90
1766;DHT22;880;52.452;8.656;2023-04-01T15:59:03;9.50;99.90
1766;DHT22;880;52.452;8.656;2023-04-01T16:02:08;9.50;99.90
1766;DHT22;880;52.452;8.656;2023-04-01T16:05:23;9.40;99.90
1766;DHT22;880;52.452;8.656;2023-04-01T16:13:58;9.40;99.90
1766;DHT22;880;52.452;8.656;2023-04-01T16:22:25;9.30;99.90
1766;DHT22;880;52.452;8.656;2023-04-01T16:28:18;9.30;99.90
1766;DHT22;880;52.452;8.656;2023-04-01T16:31:29;9.20;99.90
1766;DHT22;880;52.452;8.656;2023-04-01T16:34:16;9.10;99.90
1766;DHT22;880;52.452;8.656;2023-04-01T16:37:07;9.10;99.90
1766;DHT22;880;52.452;8.656;2023-04-01T16:46:19;9.00;99.90
1766;DHT22;880;52.452;8.656;2023-04-01T16:48:59;9.00;99.90
1766;DHT22;880;52.452;8.656;2023-04-01T16:59:40;8.90;99.90
1766;DHT22;880;52.452;8.656;2023-04-01T17:02:15;8.90;99.90
1766;DHT22;880;52.452;8.656;2023-04-01T17:04:57;8.80;99.90
1766;DHT22;880;52.452;8.656;2023-04-01T17:10:30;8.70;99.90
1766;DHT22;880;52.452;8.656;2023-04-01T17:19:01;8.70;99.90
1766;DHT22;880;52.452;8.656;2023-04-01T17:27:44;8.60;99.90
1766;DHT22;880;52.452;8.656;2023-04-01T17:36:16;8.50;99.90
1766;DHT22;880;52.452;8.656;2023-04-01T17:39:15;8.50;99.90
1766;DHT22;880;52.452;8.656;2023-04-01T17:42:00;8.40;99.90
1766;DHT22;880;52.452;8.656;2023-04-01T17:45:05;8.30;99.90
1766;DHT22;880;52.452;8.656;2023-04-01T17:48:11;8.20;99.90
1766;DHT22;880;52.452;8.656;2023-04-01T17:50:58;8.30;99.90
1766;DHT22;880;52.452;8.656;2023-04-01T17:53:59;8.20;99.90
1766;DHT22;880;52.452;8.656;2023-04-01T17:59:28;8.20;99.90
1766;DHT22;880;52.452;8.656;2023-04-01T18:08:52;8.20;99.90
1766;DHT22;880;52.452;8.656;2023-04-01T18:11:49;8.10;99.90
1766;DHT22;880;52.452;8.656;2023-04-01T18:14:38;8.10;99.90
1766;DHT22;880;52.452;8.656;2023-04-01T18:18:02;8.00;99.90
1766;DHT22;880;52.452;8.656;2023-04-01T18:23:55;7.90;99.90
1766;DHT22;880;52.452;8.656;2023-04-01T18:26:34;7.90;99.90
1766;DHT22;880;52.452;8.656;2023-04-01T18:29:26;7.80;99.90
1766;DHT22;880;52.452;8.656;2023-04-01T18:35:17;7.80;99.90
1766;DHT22;880;52.452;8.656;2023-04-01T18:38:11;7.80;99.90
1766;DHT22;880;52.452;8.656;2023-04-01T18:40:47;7.80;99.90
1766;DHT22;880;52.452;8.656;2023-04-01T18:43:48;7.70;99.90
1766;DHT22;880;52.452;8.656;2023-04-01T18:46:34;7.70;99.90
1766;DHT22;880;52.452;8.656;2023-04-01T18:49:29;7.70;99.90
1766;DHT22;880;52.452;8.656;2023-04-01T18:52:28;7.70;99.90
1766;DHT22;880;52.452;8.656;2023-04-01T18:57:55;7.60;99.90
1766;DHT22;880;52.452;8.656;2023-04-01T19:00:42;7.60;99.90
1766;DHT22;880;52.452;8.656;2023-04-01T19:06:17;7.50;99.90
1766;DHT22;880;52.452;8.656;2023-04-01T19:09:27;7.50;99.90
1766;DHT22;880;52.452;8.656;2023-04-01T19:12:15;7.50;99.90
1766;DHT22;880;52.452;8.656;2023-04-01T19:15:26;7.40;99.90
1766;DHT22;880;52.452;8.656;2023-04-01T19:21:42;7.20;99.90
1766;DHT22;880;52.452;8.656;2023-04-01T19:25:15;7.20;99.90
1766;DHT22;880;52.452;8.656;2023-04-01T19:28:38;7.10;99.90
1766;DHT22;880;52.452;8.656;2023-04-01T19:31:57;7.10;99.90
1766;DHT22;880;52.452;8.656;2023-04-01T19:37:57;7.00;99.90
1766;DHT22;880;52.452;8.656;2023-04-01T19:40:46;7.00;99.90
1766;DHT22;880;52.452;8.656;2023-04-01T19:52:50;7.00;99.90
1766;DHT22;880;52.452;8.656;2023-04-01T19:55:45;7.00;99.90
1766;DHT22;880;52.452;8.656;2023-04-01T19:58:43;6.90;99.90
1766;DHT22;880;52.452;8.656;2023-04-01T20:01:28;6.90;99.90
1766;DHT22;880;52.452;8.656;2023-04-01T20:04:33;6.90;99.90
1766;DHT22;880;52.452;8.656;2023-04-01T20:07:23;6.80;99.90
1766;DHT22;880;52.452;8.656;2023-04-01T20:16:58;6.70;99.90
1766;DHT22;880;52.452;8.656;2023-04-01T20:19:40;6.60;99.90
1766;DHT22;880;52.452;8.656;2023-04-01T20:22:31;6.60;99.90
1766;DHT22;880;52.452;8.656;2023-04-01T20:25:48;6.60;99.90
1766;DHT22;880;52.452;8.656;2023-04-01T20:28:21;6.50;99.90
1766;DHT22;880;52.452;8.656;2023-04-01T20:31:23;6.50;99.90
1766;DHT22;880;52.452;8.656;2023-04-01T20:34:22;6.50;99.90
1766;DHT22;880;52.452;8.656;2023-04-01T20:37:22;6.50;99.90
1766;DHT22;880;52.452;8.656;2023-04-01T20:40:33;6.50;99.90
1766;DHT22;880;52.452;8.656;2023-04-01T20:49:38;6.60;99.90
1766;DHT22;880;52.452;8.656;2023-04-01T21:00:45;6.60;99.90
1766;DHT22;880;52.452;8.656;2023-04-01T21:03:49;6.50;99.90
1766;DHT22;880;52.452;8.656;2023-04-01T21:10:16;6.40;99.90
1766;DHT22;880;52.452;8.656;2023-04-01T21:16:49;6.40;99.90
1766;DHT22;880;52.452;8.656;2023-04-01T21:20:03;6.40;99.90
1766;DHT22;880;52.452;8.656;2023-04-01T21:31:55;6.30;99.90
1766;DHT22;880;52.452;8.656;2023-04-01T21:34:44;6.40;99.90
1766;DHT22;880;52.452;8.656;2023-04-01T21:43:42;6.50;99.90
1766;DHT22;880;52.452;8.656;2023-04-01T21:56:22;6.30;99.90
1766;DHT22;880;52.452;8.656;2023-04-01T21:59:25;6.40;99.90
1766;DHT22;880;52.452;8.656;2023-04-01T22:05:28;6.40;99.90
1766;DHT22;880;52.452;8.656;2023-04-01T22:08:24;6.30;99.90
1766;DHT22;880;52.452;8.656;2023-04-01T22:14:31;6.20;99.90
1766;DHT22;880;52.452;8.656;2023-04-01T22:17:28;6.00;99.90
1766;DHT22;880;52.452;8.656;2023-04-01T22:20:18;5.90;99.90
1766;DHT22;880;52.452;8.656;2023-04-01T22:26:17;5.70;99.90
1766;DHT22;880;52.452;8.656;2023-04-01T22:29:22;5.70;99.90
1766;DHT22;880;52.452;8.656;2023-04-01T22:32:08;5.70;99.90
1766;DHT22;880;52.452;8.656;2023-04-01T22:34:57;5.70;99.90
1766;DHT22;880;52.452;8.656;2023-04-01T22:37:49;5.60;99.90
1766;DHT22;880;52.452;8.656;2023-04-01T22:43:58;5.60;99.90
1766;DHT22;880;52.452;8.656;2023-04-01T22:46:43;5.60;99.90
1766;DHT22;880;52.452;8.656;2023-04-01T22:49:28;5.50;99.90
1766;DHT22;880;52.452;8.656;2023-04-01T22:54:57;5.50;99.90
1766;DHT22;880;52.452;8.656;2023-04-01T22:59:58;5.50;99.90
1766;DHT22;880;52.452;8.656;2023-04-01T23:02:40;5.50;99.90
1766;DHT22;880;52.452;8.656;2023-04-01T23:05:13;5.50;99.90
1766;DHT22;880;52.452;8.656;2023-04-01T23:07:59;5.40;99.90
1766;DHT22;880;52.452;8.656;2023-04-01T23:13:53;5.30;99.90
1766;DHT22;880;52.452;8.656;2023-04-01T23:16:51;5.30;99.90
1766;DHT22;880;52.452;8.656;2023-04-01T23:19:31;5.30;99.90
1766;DHT22;880;52.452;8.656;2023-04-01T23:22:21;5.30;99.90
1766;DHT22;880;52.452;8.656;2023-04-01T23:25:26;5.30;99.90
1766;DHT22;880;52.452;8.656;2023-04-01T23:35:59;5.00;99.90
1766;DHT22;880;52.452;8.656;2023-04-01T23:38:48;5.00;99.90
1766;DHT22;880;52.452;8.656;2023-04-01T23:41:24;4.90;99.90
1766;DHT22;880;52.452;8.656;2023-04-01T23:44:17;4.80;99.90
1766;DHT22;880;52.452;8.656;2023-04-01T23:46:45;4.70;99.90
1766;DHT22;880;52.452;8.656;2023-04-01T23:49:21;4.60;99.90
1766;DHT22;880;52.452;8.656;2023-04-01T23:54:48;4.60;99.90
1766;DHT22;880;52.452;8.656;2023-04-01T23:57:22;4.60;99.90
